RYNDS weather

Reynolds Field
Penrose, Arkansas, United States

Public forecast

Using degrees Fahrenheit for public forecast. Weather courtesy of forecast.io.

METAR (pilot weather report)

Closest report is Newport Regional Airport, 27.4 nm (50.8 km) N. Retrieved UTC (0 seconds ago):

TAF (pilot weather forecast)

Closest forecast is Jonesboro Municipal Airport, 43.7 nm (81.0 km) NNE. Retrieved 2019/07/23 06:24 UTC (39 minutes ago):

TAF KJBR 230521Z 2306/2406 01009KT P6SM FEW050 SCT250 FM231400 02011G17KT P6SM FEW035 FEW250 FM232100 03011KT P6SM SKC FM240100 04006KT P6SM SKC